Time;durP1;ratioP1;P1;durP2;ratioP2;P2;SDS_P1;SDS_P2;PMS_P1;PMS_P2;Temp;Humidity;BMP_temperature;BMP_pressure;BME280_temperature;BME280_humidity;BME280_pressure;Samples;Min_cycle;Max_cycle;Signal;HPM_P1;HPM_P2
2023/06/13 00:01:00;;;;;;;;;22.75;20.75;;;;;24.07;60.63;100721.41;5080445;27;46377;-49
2023/06/13 00:03:26;;;;;;;;;22.60;20.20;;;;;24.05;60.29;100727.06;5077266;27;45347;-45
2023/06/13 00:05:54;;;;;;;;;21.75;17.50;;;;;24.05;60.75;100726.22;5077370;27;45470;-45
2023/06/13 00:08:21;;;;;;;;;48.33;37.67;;;;;24.03;60.25;100729.19;5077541;27;45446;-48
2023/06/13 00:10:47;;;;;;;;;33.75;28.25;;;;;24.00;60.79;100726.94;5076922;27;46218;-47
2023/06/13 00:13:14;;;;;;;;;22.80;19.00;;;;;23.99;60.65;100728.00;5077039;27;45439;-48
2023/06/13 00:15:51;;;;;;;;;21.75;21.00;;;;;23.99;60.77;100722.59;5083688;27;45360;-47
2023/06/13 00:18:19;;;;;;;;;29.75;24.75;;;;;23.98;60.38;100718.22;5097755;27;45602;-46
2023/06/13 00:20:45;;;;;;;;;19.40;19.20;;;;;23.98;60.47;100720.09;5095847;27;46750;-46
2023/06/13 00:23:12;;;;;;;;;21.20;18.40;;;;;23.97;60.66;100713.00;5097496;27;45443;-48
2023/06/13 00:25:37;;;;;;;;;18.25;18.00;;;;;23.95;60.70;100713.25;5096107;27;45467;-47
2023/06/13 00:28:03;;;;;;;;;30.00;24.75;;;;;23.91;60.53;100709.34;5097821;27;45276;-47
2023/06/13 00:30:28;;;;;;;;;22.75;21.00;;;;;23.92;60.66;100718.31;5097467;27;46000;-47
2023/06/13 00:32:54;;;;;;;;;21.50;21.25;;;;;23.75;60.54;100691.03;5097295;27;45425;-47
2023/06/13 00:35:20;;;;;;;;;20.60;20.20;;;;;23.82;60.78;100706.16;5097473;27;45303;-47
2023/06/13 00:37:47;;;;;;;;;25.75;25.25;;;;;23.81;60.73;100700.97;5097555;27;45373;-48
2023/06/13 00:40:12;;;;;;;;;24.20;21.00;;;;;23.80;60.57;100699.28;5097316;27;47460;-48
2023/06/13 00:42:38;;;;;;;;;25.50;25.25;;;;;23.78;60.74;100699.53;5083927;27;45313;-48
2023/06/13 00:45:24;;;;;;;;;20.50;20.50;;;;;23.76;60.29;100701.63;5077002;27;45337;-48
2023/06/13 00:47:59;;;;;;;;;24.00;20.50;;;;;23.74;60.60;100701.06;5075552;28;45294;-46
2023/06/13 00:50:33;;;;;;;;;21.25;19.50;;;;;23.73;60.48;100704.03;5079338;27;47462;-48
2023/06/13 00:53:02;;;;;;;;;24.80;21.40;;;;;23.72;60.47;100696.91;5080366;27;45337;-47
2023/06/13 00:55:27;;;;;;;;;23.80;19.00;;;;;23.60;60.45;100688.75;5080350;27;45538;-48
2023/06/13 00:57:55;;;;;;;;;24.00;17.50;;;;;23.63;60.75;100694.50;5080243;28;45256;-48
2023/06/13 01:00:26;;;;;;;;;23.75;20.75;;;;;23.67;60.22;100694.09;5080168;27;45359;-46
2023/06/13 01:02:57;;;;;;;;;26.20;18.60;;;;;23.65;60.29;100695.16;5080151;27;45429;-48
2023/06/13 01:05:25;;;;;;;;;26.00;21.00;;;;;23.54;60.60;100678.81;5080331;27;45430;-47
2023/06/13 01:07:51;;;;;;;;;20.75;19.25;;;;;23.61;60.46;100696.66;5080365;27;45478;-45
2023/06/13 01:10:18;;;;;;;;;23.50;20.50;;;;;23.56;60.60;100699.25;5079931;27;47152;-48
2023/06/13 01:12:53;;;;;;;;;19.00;18.60;;;;;23.56;60.86;100698.41;5079844;27;45256;-45
2023/06/13 01:15:21;;;;;;;;;25.50;20.25;;;;;23.54;60.61;100689.66;5080248;27;45396;-46
2023/06/13 01:17:57;;;;;;;;;27.50;23.25;;;;;23.54;60.57;100695.09;5092265;27;45336;-47
2023/06/13 01:20:26;;;;;;;;;23.25;20.00;;;;;23.52;60.75;100691.81;5100448;27;45634;-46
2023/06/13 01:23:30;;;;;;;;;20.60;19.20;;;;;23.47;60.86;100689.78;5100292;27;45400;-47
2023/06/13 01:26:04;;;;;;;;;21.60;21.40;;;;;23.46;60.74;100693.53;5099972;27;45260;-49
2023/06/13 01:28:35;;;;;;;;;23.00;18.50;;;;;23.36;60.42;100672.41;5100400;27;45497;-49
2023/06/13 01:31:05;;;;;;;;;21.50;18.50;;;;;23.43;60.54;100688.59;5100049;27;47210;-46
2023/06/13 01:33:30;;;;;;;;;22.20;20.00;;;;;23.42;60.89;100687.75;5100191;27;45528;-50
2023/06/13 01:35:56;;;;;;;;;25.25;23.25;;;;;23.40;60.84;100689.06;5100267;27;45397;-48
2023/06/13 01:38:22;;;;;;;;;24.75;22.00;;;;;23.36;60.58;100693.28;5100314;27;45319;-46
2023/06/13 01:40:48;;;;;;;;;25.50;21.75;;;;;23.23;60.72;100660.94;5099877;27;45211;-46
2023/06/13 01:43:14;;;;;;;;;27.00;19.60;;;;;23.32;60.67;100687.50;5098581;27;46343;-48
2023/06/13 01:45:40;;;;;;;;;22.50;20.50;;;;;23.30;60.68;100689.63;5100251;27;45222;-48
2023/06/13 01:48:16;;;;;;;;;24.50;22.25;;;;;23.28;60.81;100696.34;5100354;27;45267;-48
2023/06/13 01:51:00;;;;;;;;;20.75;19.25;;;;;23.23;60.75;100682.63;5099769;27;46070;-47
2023/06/13 01:53:39;;;;;;;;;19.40;19.00;;;;;23.25;60.92;100684.03;5099826;27;45719;-48
2023/06/13 01:56:09;;;;;;;;;26.00;19.60;;;;;23.21;60.85;100688.28;5099886;27;45310;-47
2023/06/13 01:58:46;;;;;;;;;23.25;22.75;;;;;23.22;60.81;100684.53;5099872;27;45477;-47
2023/06/13 02:01:13;;;;;;;;;20.75;17.00;;;;;23.21;60.72;100690.16;5098705;27;46455;-48
2023/06/13 02:03:39;;;;;;;;;29.40;20.80;;;;;23.20;60.86;100683.91;5098177;27;45348;-49
2023/06/13 02:06:04;;;;;;;;;19.50;16.00;;;;;23.17;61.10;100684.38;5099734;27;45483;-49
2023/06/13 02:08:31;;;;;;;;;23.00;19.25;;;;;23.16;60.82;100680.84;5099841;27;45351;-49
2023/06/13 02:10:57;;;;;;;;;26.50;22.50;;;;;23.19;60.65;100681.44;5099502;27;47047;-46
2023/06/13 02:13:23;;;;;;;;;28.50;20.75;;;;;23.15;60.77;100668.34;5099329;27;45380;-47
2023/06/13 02:15:48;;;;;;;;;21.75;19.50;;;;;23.15;61.01;100676.47;5081321;27;45460;-46
2023/06/13 02:18:15;;;;;;;;;21.25;21.25;;;;;23.09;60.81;100663.00;5098458;27;45334;-46
2023/06/13 02:20:41;;;;;;;;;21.00;19.50;;;;;23.10;61.10;100668.22;5078741;27;46697;-47
2023/06/13 02:23:06;;;;;;;;;20.25;18.75;;;;;23.08;60.93;100666.78;5078866;28;45430;-48
2023/06/13 02:25:31;;;;;;;;;23.75;18.50;;;;;23.08;61.02;100677.63;5078742;27;45407;-48
2023/06/13 02:27:57;;;;;;;;;22.25;22.25;;;;;23.08;61.15;100672.19;5079220;27;45522;-46
2023/06/13 02:30:22;;;;;;;;;19.75;19.75;;;;;23.06;60.78;100671.63;5078538;27;46045;-47
2023/06/13 02:32:49;;;;;;;;;23.75;21.25;;;;;22.99;61.24;100663.56;5078723;27;45379;-46
2023/06/13 02:35:14;;;;;;;;;17.00;16.50;;;;;23.01;60.99;100668.78;5078870;27;45633;-46
2023/06/13 02:37:40;;;;;;;;;21.00;20.25;;;;;22.99;61.00;100666.28;5078341;27;45378;-48
2023/06/13 02:40:07;;;;;;;;;27.00;23.75;;;;;22.97;61.25;100668.41;5078509;27;50317;-45
2023/06/13 02:42:33;;;;;;;;;22.20;20.40;;;;;22.82;61.16;100649.78;5078590;28;45764;-48
2023/06/13 02:44:59;;;;;;;;;18.75;18.75;;;;;22.94;61.31;100668.03;5091821;27;46004;-47
2023/06/13 02:47:24;;;;;;;;;24.25;21.25;;;;;22.87;61.27;100654.50;5099196;27;45400;-47
2023/06/13 02:49:49;;;;;;;;;24.25;19.00;;;;;22.91;61.38;100663.88;5099015;27;46045;-44
2023/06/13 02:52:15;;;;;;;;;23.50;21.50;;;;;22.87;61.42;100659.94;5098972;27;45282;-47
2023/06/13 02:54:40;;;;;;;;;27.50;22.75;;;;;22.83;61.11;100653.31;5098982;27;45335;-46
2023/06/13 02:57:06;;;;;;;;;24.00;21.75;;;;;22.83;61.32;100656.03;5099248;27;45366;-45
2023/06/13 02:59:32;;;;;;;;;28.00;21.75;;;;;22.82;61.58;100654.38;5098413;27;46903;-46
2023/06/13 03:01:57;;;;;;;;;19.75;19.75;;;;;22.76;61.30;100649.88;5098863;27;45546;-47
2023/06/13 03:04:23;;;;;;;;;18.75;16.50;;;;;22.79;61.45;100660.25;5098749;27;45315;-45
2023/06/13 03:06:49;;;;;;;;;25.00;21.50;;;;;22.75;61.59;100654.47;5098866;27;45519;-48
2023/06/13 03:09:15;;;;;;;;;22.50;19.50;;;;;22.76;61.34;100658.03;5098630;27;45359;-48
2023/06/13 03:11:41;;;;;;;;;23.75;21.25;;;;;22.75;61.53;100661.78;5096756;27;45410;-47
2023/06/13 03:14:06;;;;;;;;;21.50;19.00;;;;;22.74;61.45;100662.84;5098619;27;45245;-48
2023/06/13 03:16:32;;;;;;;;;21.75;21.00;;;;;22.71;61.77;100661.41;5098734;27;45343;-49
2023/06/13 03:18:58;;;;;;;;;22.00;19.75;;;;;22.70;61.41;100659.75;5098221;27;47240;-46
2023/06/13 03:21:23;;;;;;;;;21.00;20.00;;;;;22.66;61.60;100666.69;5083658;27;45312;-45
2023/06/13 03:23:48;;;;;;;;;26.25;22.50;;;;;22.68;61.60;100667.28;5078134;27;45478;-46
2023/06/13 03:26:16;;;;;;;;;22.25;21.00;;;;;22.67;61.78;100663.75;5078162;27;45490;-48
2023/06/13 03:28:42;;;;;;;;;24.00;20.25;;;;;22.64;61.73;100661.50;5077858;27;46231;-48
2023/06/13 03:31:08;;;;;;;;;22.25;20.75;;;;;22.66;61.64;100666.69;5077731;28;45519;-46
2023/06/13 03:33:33;;;;;;;;;23.00;20.00;;;;;22.65;61.58;100670.47;5077841;28;45330;-47
2023/06/13 03:35:58;;;;;;;;;23.00;21.25;;;;;22.65;61.76;100673.16;5078117;27;45439;-47
2023/06/13 03:38:24;;;;;;;;;24.00;20.00;;;;;22.62;61.70;100663.59;5077494;27;47154;-48
2023/06/13 03:40:49;;;;;;;;;22.50;21.50;;;;;22.61;61.91;100659.22;5077797;27;45473;-46
2023/06/13 03:43:14;;;;;;;;;23.75;22.00;;;;;22.61;61.65;100667.38;5077875;27;45832;-47
2023/06/13 03:45:40;;;;;;;;;21.00;18.00;;;;;22.58;61.81;100658.84;5095184;27;45520;-49
2023/06/13 03:48:05;;;;;;;;;19.75;17.50;;;;;22.59;61.68;100658.66;5098205;27;46086;-47
2023/06/13 03:50:30;;;;;;;;;20.75;20.75;;;;;22.58;61.81;100658.84;5098042;27;45338;-48
2023/06/13 03:52:56;;;;;;;;;21.50;21.50;;;;;22.58;61.66;100661.56;5098169;27;45265;-48
2023/06/13 03:55:23;;;;;;;;;24.00;22.25;;;;;22.53;62.02;100654.13;5098243;27;45589;-45
2023/06/13 03:57:49;;;;;;;;;25.75;19.50;;;;;22.56;61.96;100661.81;5097645;27;46402;-49
2023/06/13 04:00:15;;;;;;;;;26.75;20.75;;;;;22.54;61.75;100666.63;5097767;27;45434;-47
2023/06/13 04:02:41;;;;;;;;;22.75;20.00;;;;;22.57;62.05;100666.16;5096729;27;45437;-47
2023/06/13 04:05:08;;;;;;;;;23.50;19.50;;;;;22.56;61.92;100664.53;5098103;27;45227;-48
2023/06/13 04:07:35;;;;;;;;;23.75;23.25;;;;;22.55;61.87;100660.16;5097537;27;46178;-47
2023/06/13 04:10:03;;;;;;;;;23.75;20.25;;;;;22.49;61.99;100655.63;5097732;27;45433;-47
2023/06/13 04:12:29;;;;;;;;;25.50;20.50;;;;;22.55;61.74;100668.28;5096570;27;45435;-49
2023/06/13 04:14:55;;;;;;;;;22.50;20.00;;;;;22.50;61.72;100657.31;5097841;27;45446;-48
2023/06/13 04:17:20;;;;;;;;;31.75;23.50;;;;;22.48;61.94;100656.69;5097573;27;45266;-45
2023/06/13 04:19:45;;;;;;;;;26.25;20.00;;;;;22.54;61.65;100673.91;5097495;27;45238;-47
2023/06/13 04:22:11;;;;;;;;;20.25;18.75;;;;;22.53;61.90;100670.38;5081979;27;45272;-48
2023/06/13 04:24:37;;;;;;;;;24.25;22.00;;;;;22.54;61.45;100676.63;5076794;27;45492;-49
2023/06/13 04:27:03;;;;;;;;;24.75;19.75;;;;;22.54;61.55;100674.75;5076675;28;46137;-46
2023/06/13 04:29:31;;;;;;;;;24.60;20.40;;;;;22.51;61.74;100671.69;5077040;27;45316;-48
2023/06/13 04:31:56;;;;;;;;;22.00;21.00;;;;;22.54;61.49;100679.34;5076940;28;45343;-47
2023/06/13 04:34:23;;;;;;;;;21.50;19.50;;;;;22.52;61.43;100684.19;5077187;27;45335;-46
2023/06/13 04:36:49;;;;;;;;;21.75;20.00;;;;;22.51;61.70;100679.81;5076662;27;46541;-46
2023/06/13 04:39:15;;;;;;;;;22.25;21.25;;;;;22.54;61.76;100685.59;5076842;27;45399;-48
2023/06/13 04:41:43;;;;;;;;;25.50;21.25;;;;;22.54;61.56;100684.75;5077018;27;45361;-49
2023/06/13 04:44:09;;;;;;;;;24.00;20.75;;;;;22.57;61.51;100681.59;5077155;27;45327;-45
2023/06/13 04:46:40;;;;;;;;;24.25;23.25;;;;;22.58;61.53;100681.38;5076626;27;46121;-47
2023/06/13 04:49:06;;;;;;;;;22.20;20.80;;;;;22.61;61.61;100682.81;5076646;27;45443;-50
2023/06/13 04:51:35;;;;;;;;;33.50;23.50;;;;;22.62;61.42;100688.00;5076700;27;45462;-49
2023/06/13 04:54:00;;;;;;;;;29.50;22.75;;;;;22.64;61.64;100691.31;5077048;27;45319;-48
2023/06/13 04:56:27;;;;;;;;;28.50;25.25;;;;;22.67;61.59;100687.34;5076259;27;46075;-45
2023/06/13 04:58:53;;;;;;;;;26.50;21.00;;;;;22.68;61.39;100694.41;5076581;28;45407;-47
2023/06/13 05:01:26;;;;;;;;;26.00;20.50;;;;;22.70;61.47;100686.03;5076448;27;45233;-47
2023/06/13 05:03:52;;;;;;;;;24.25;20.00;;;;;22.74;61.41;100684.53;5076480;27;45394;-46
2023/06/13 05:06:17;;;;;;;;;19.50;18.25;;;;;22.75;61.17;100684.28;5076307;27;46740;-47
2023/06/13 05:08:42;;;;;;;;;26.00;22.75;;;;;22.78;61.36;100685.72;5076042;27;45501;-48
2023/06/13 05:11:08;;;;;;;;;30.25;25.75;;;;;22.80;61.07;100684.44;5076594;27;45407;-47
2023/06/13 05:13:33;;;;;;;;;22.50;21.50;;;;;22.82;61.33;100693.19;5076723;27;45241;-47
2023/06/13 05:15:59;;;;;;;;;26.25;20.75;;;;;22.85;61.11;100687.31;5076141;27;46000;-45
2023/06/13 05:18:29;;;;;;;;;23.75;21.75;;;;;22.86;61.25;100688.94;5076251;28;45623;-45
2023/06/13 05:20:55;;;;;;;;;27.00;24.25;;;;;22.89;61.06;100684.97;5076107;27;45332;-46
2023/06/13 05:23:21;;;;;;;;;23.25;23.25;;;;;22.90;61.08;100683.94;5076659;27;45292;-45
2023/06/13 05:25:47;;;;;;;;;22.75;19.50;;;;;22.91;60.93;100689.13;5075977;27;45900;-46
2023/06/13 05:28:12;;;;;;;;;22.75;20.00;;;;;22.96;60.78;100685.72;5076396;27;45264;-47
2023/06/13 05:30:38;;;;;;;;;26.75;24.50;;;;;22.91;60.68;100678.25;5076054;27;45505;-44
2023/06/13 05:33:03;;;;;;;;;22.75;19.75;;;;;23.03;60.82;100691.06;5076437;27;45424;-46
2023/06/13 05:35:29;;;;;;;;;30.75;24.75;;;;;23.04;60.70;100685.38;5075769;27;45763;-46
2023/06/13 05:37:54;;;;;;;;;23.50;20.75;;;;;23.02;60.46;100671.25;5079380;27;45324;-45
2023/06/13 05:40:19;;;;;;;;;82.25;69.25;;;;;22.98;60.08;100663.81;5079626;28;45413;-47
2023/06/13 05:42:45;;;;;;;;;29.75;23.75;;;;;23.04;60.19;100677.25;5079671;28;45455;-46
2023/06/13 05:45:10;;;;;;;;;29.25;23.25;;;;;23.04;60.32;100673.72;5078946;27;46225;-45
2023/06/13 05:47:36;;;;;;;;;21.50;19.50;;;;;23.08;60.19;100685.75;5079151;27;45407;-47
2023/06/13 05:50:03;;;;;;;;;24.00;19.75;;;;;23.12;59.95;100686.97;5079341;27;45293;-47
2023/06/13 05:52:28;;;;;;;;;22.00;20.25;;;;;23.12;59.93;100670.69;5079956;27;45466;-48
2023/06/13 05:54:54;;;;;;;;;24.50;23.25;;;;;23.21;59.53;100687.47;5079159;27;45983;-45
2023/06/13 05:57:19;;;;;;;;;24.00;22.50;;;;;23.26;59.96;100682.16;5089934;27;45479;-48
2023/06/13 05:59:45;;;;;;;;;25.25;22.00;;;;;23.32;59.54;100692.09;5099046;27;45812;-48
2023/06/13 06:02:11;;;;;;;;;24.25;20.00;;;;;23.36;59.44;100690.56;5099519;27;45490;-46
2023/06/13 06:04:36;;;;;;;;;23.25;21.25;;;;;23.37;59.38;100694.94;5098511;27;46161;-47
2023/06/13 06:07:03;;;;;;;;;22.00;20.00;;;;;23.46;59.31;100695.44;5081779;27;46046;-46
2023/06/13 06:09:28;;;;;;;;;26.25;19.75;;;;;23.52;58.95;100689.91;5099044;27;45263;-46
2023/06/13 06:11:53;;;;;;;;;22.25;19.25;;;;;;;;5099783;27;45311;-47
2023/06/13 06:14:20;;;;;;;;;26.25;25.00;;;;;23.58;58.68;100686.25;5099596;27;45347;-47
2023/06/13 06:16:45;;;;;;;;;23.20;20.40;;;;;23.61;58.26;100674.94;5099525;27;45451;-47
2023/06/13 06:19:10;;;;;;;;;22.75;22.25;;;;;23.66;57.99;100676.97;5099594;27;45221;-45
2023/06/13 06:21:36;;;;;;;;;26.00;24.25;;;;;23.70;57.51;100675.44;5099517;27;45418;-49
2023/06/13 06:24:01;;;;;;;;;25.75;23.00;;;;;23.75;57.54;100672.84;5098012;27;46179;-49
2023/06/13 06:26:27;;;;;;;;;26.25;20.25;;;;;23.79;57.37;100660.44;5091764;27;45432;-48
2023/06/13 06:28:52;;;;;;;;;23.50;18.50;;;;;23.86;56.80;100671.19;5078990;27;45390;-51
2023/06/13 06:31:18;;;;;;;;;20.75;18.75;;;;;23.93;56.64;100669.16;5078997;28;45776;-46
2023/06/13 06:33:43;;;;;;;;;21.00;18.00;;;;;24.42;56.09;100664.31;5078661;27;45500;-49
2023/06/13 06:36:09;;;;;;;;;31.25;23.25;;;;;25.67;53.54;100670.72;5078620;27;45426;-47
2023/06/13 06:38:34;;;;;;;;;19.50;17.50;;;;;27.01;50.51;100672.25;5078677;27;45276;-46
2023/06/13 06:41:00;;;;;;;;;18.00;14.75;;;;;28.26;46.70;100652.72;5079242;27;45366;-47
2023/06/13 06:43:25;;;;;;;;;23.50;20.25;;;;;29.27;44.42;100656.88;5088287;27;46022;-47
2023/06/13 06:45:51;;;;;;;;;21.00;17.00;;;;;30.03;41.51;100664.22;5099034;27;45321;-46
2023/06/13 06:48:16;;;;;;;;;20.25;17.50;;;;;30.73;39.54;100661.56;5098511;27;45254;-49
2023/06/13 06:50:41;;;;;;;;;19.25;16.75;;;;;31.27;38.02;100665.31;5099320;27;45336;-49
2023/06/13 06:53:07;;;;;;;;;19.75;16.25;;;;;31.78;36.71;100659.41;5099054;27;45360;-48
2023/06/13 06:55:32;;;;;;;;;19.00;15.00;;;;;32.19;36.29;100646.03;5098938;27;45386;-49
2023/06/13 06:57:57;;;;;;;;;19.25;14.75;;;;;32.58;35.63;100650.53;5098890;27;45391;-48
2023/06/13 07:00:23;;;;;;;;;16.50;16.50;;;;;33.01;34.76;100643.03;5097719;27;45471;-47
2023/06/13 07:02:49;;;;;;;;;15.50;14.25;;;;;33.33;34.00;100643.34;5098652;27;45510;-46
2023/06/13 07:05:17;;;;;;;;;17.50;15.50;;;;;33.72;33.63;100645.75;5098561;27;45278;-47
2023/06/13 07:07:44;;;;;;;;;18.60;16.40;;;;;34.11;32.36;100639.75;5098704;27;45467;-47
2023/06/13 07:10:10;;;;;;;;;15.40;13.20;;;;;34.49;32.42;100637.59;5097803;27;45363;-46
2023/06/13 07:12:36;;;;;;;;;21.40;17.60;;;;;34.78;30.93;100639.19;5098530;27;46285;-47
2023/06/13 07:15:02;;;;;;;;;13.60;13.60;;;;;35.04;30.67;100636.66;5098582;27;45331;-48
2023/06/13 07:17:28;;;;;;;;;19.25;18.00;;;;;35.34;30.37;100651.66;5098614;27;45766;-46
2023/06/13 07:19:54;;;;;;;;;11.80;11.80;;;;;35.60;30.60;100654.63;5098824;27;45284;-47
2023/06/13 07:22:19;;;;;;;;;20.50;18.50;;;;;35.84;29.61;100656.22;5098677;27;47156;-48
2023/06/13 07:24:44;;;;;;;;;24.25;20.25;;;;;36.19;29.61;100654.41;5098566;27;45292;-48
2023/06/13 07:27:11;;;;;;;;;18.00;16.75;;;;;36.49;28.56;100658.25;5098666;27;45465;-46
2023/06/13 07:29:36;;;;;;;;;22.00;19.00;;;;;36.73;28.43;100650.31;5098781;27;45442;-49
2023/06/13 07:32:01;;;;;;;;;17.25;15.00;;;;;37.04;28.12;100662.41;5098280;27;46177;-50
2023/06/13 07:34:27;;;;;;;;;20.00;14.50;;;;;37.18;27.58;100652.78;5098566;27;45231;-48
2023/06/13 07:36:54;;;;;;;;;17.00;16.00;;;;;37.37;27.85;100662.72;5098331;27;45326;-47
2023/06/13 07:39:20;;;;;;;;;16.40;14.00;;;;;37.48;28.12;100649.34;5098585;27;45317;-46
2023/06/13 07:41:46;;;;;;;;;18.60;14.60;;;;;37.64;27.42;100648.47;5098253;27;46236;-47
2023/06/13 07:44:12;;;;;;;;;16.20;15.00;;;;;37.73;28.10;100651.22;5097069;27;45571;-48
2023/06/13 07:46:38;;;;;;;;;18.25;14.50;;;;;37.74;27.11;100657.59;5098307;27;45243;-47
2023/06/13 07:49:04;;;;;;;;;17.20;15.60;;;;;37.87;27.05;100656.59;5098509;27;45321;-48
2023/06/13 07:51:29;;;;;;;;;26.00;20.50;;;;;37.98;26.98;100646.75;5098185;27;47042;-47
2023/06/13 07:53:54;;;;;;;;;18.25;16.00;;;;;38.08;26.33;100645.56;5098368;27;45211;-44
2023/06/13 07:56:20;;;;;;;;;19.75;19.75;;;;;38.12;25.54;100646.50;5098246;27;45306;-48
2023/06/13 07:58:45;;;;;;;;;21.00;18.50;;;;;38.18;26.08;100645.19;5097551;27;45406;-48
2023/06/13 08:01:11;;;;;;;;;19.00;16.75;;;;;38.29;25.94;100637.25;5097986;27;46755;-45
2023/06/13 08:03:36;;;;;;;;;21.50;18.00;;;;;38.47;25.20;100644.34;5097994;27;45465;-46
2023/06/13 08:06:02;;;;;;;;;35.25;31.25;;;;;38.60;26.39;100634.13;5098269;27;45349;-47
2023/06/13 08:08:27;;;;;;;;;24.75;17.50;;;;;38.70;25.99;100642.06;5098243;27;45607;-46
2023/06/13 08:10:52;;;;;;;;;18.50;17.00;;;;;38.69;25.64;100640.47;5098004;27;46042;-48
2023/06/13 08:13:19;;;;;;;;;39.75;32.00;;;;;38.76;25.84;100649.06;5098012;27;45331;-48
2023/06/13 08:15:44;;;;;;;;;24.60;20.80;;;;;38.83;25.36;100641.03;5098009;27;45379;-48
2023/06/13 08:18:10;;;;;;;;;16.75;15.50;;;;;38.96;24.94;100641.06;5097860;27;45414;-48
2023/06/13 08:20:36;;;;;;;;;17.25;15.00;;;;;39.03;25.43;100639.38;5097756;27;45414;-47
2023/06/13 08:23:01;;;;;;;;;15.75;14.00;;;;;38.98;23.57;100641.53;5097795;27;45426;-46
2023/06/13 08:25:26;;;;;;;;;14.50;14.50;;;;;38.97;22.92;100635.16;5097650;27;45510;-49
2023/06/13 08:27:53;;;;;;;;;18.40;17.00;;;;;39.03;23.40;100635.78;5097791;27;45562;-48
2023/06/13 08:30:19;;;;;;;;;18.00;15.50;;;;;39.12;24.02;100636.50;5097900;27;46011;-46
2023/06/13 08:32:46;;;;;;;;;13.50;12.25;;;;;39.28;23.80;100631.97;5097438;27;45882;-48
2023/06/13 08:35:12;;;;;;;;;12.80;12.40;;;;;39.30;23.34;100629.63;5097892;27;45224;-47
2023/06/13 08:37:40;;;;;;;;;14.60;13.20;;;;;39.31;22.79;100630.44;5097875;27;45521;-48
2023/06/13 08:40:09;;;;;;;;;15.20;12.20;;;;;39.32;23.89;100629.31;5097457;27;46152;-48
2023/06/13 08:42:36;;;;;;;;;16.60;13.00;;;;;39.24;22.91;100628.25;5097565;27;45438;-48
2023/06/13 08:45:01;;;;;;;;;14.20;11.00;;;;;39.21;22.84;100628.06;5097508;27;45585;-48
2023/06/13 08:47:28;;;;;;;;;14.25;12.75;;;;;39.18;23.47;100635.13;5097682;27;45303;-50
2023/06/13 08:49:53;;;;;;;;;16.00;15.00;;;;;39.31;23.70;100625.69;5097312;27;46219;-49
2023/06/13 08:52:19;;;;;;;;;5.50;5.50;;;;;39.39;23.28;100626.75;5097695;27;45289;-49
2023/06/13 08:54:48;;;;;;;;;14.00;13.20;;;;;39.39;23.20;100622.00;5097511;27;45386;-48
2023/06/13 08:57:18;;;;;;;;;13.20;11.60;;;;;39.42;23.40;100632.47;5097867;27;45439;-48
2023/06/13 08:59:48;;;;;;;;;11.20;11.00;;;;;39.32;23.42;100623.75;5097449;27;46169;-50
2023/06/13 09:02:20;;;;;;;;;13.60;12.20;;;;;39.35;24.27;100623.84;5097382;27;45889;-48
2023/06/13 09:04:47;;;;;;;;;14.80;14.60;;;;;39.30;23.25;100624.06;5097435;27;45386;-48
2023/06/13 09:07:14;;;;;;;;;16.20;14.60;;;;;39.23;22.91;100626.59;5097656;27;45363;-45
2023/06/13 09:09:41;;;;;;;;;10.20;9.80;;;;;39.17;22.72;100627.94;5097671;27;47098;-47
2023/06/13 09:12:11;;;;;;;;;12.80;12.80;;;;;39.30;23.76;100632.41;5100901;27;45441;-48
2023/06/13 09:14:37;;;;;;;;;13.60;12.60;;;;;39.39;23.09;100632.31;5100965;27;45398;-46
2023/06/13 09:17:02;;;;;;;;;13.50;11.75;;;;;39.33;23.22;100634.53;5101190;27;45399;-47
2023/06/13 09:19:27;;;;;;;;;16.00;13.00;;;;;39.25;22.98;100641.00;5100388;27;46113;-49
2023/06/13 09:21:53;;;;;;;;;13.75;12.25;;;;;39.22;22.70;100638.88;5100767;27;45398;-49
2023/06/13 09:24:18;;;;;;;;;14.75;14.75;;;;;39.19;22.82;100631.22;5100780;27;45456;-47
2023/06/13 09:26:44;;;;;;;;;13.75;13.25;;;;;39.15;22.52;100628.31;5100331;27;45506;-46
2023/06/13 09:29:09;;;;;;;;;15.00;15.00;;;;;39.20;23.31;100626.47;5099300;27;46211;-47
2023/06/13 09:31:38;;;;;;;;;20.75;17.25;;;;;39.25;22.49;100624.28;5100556;27;45298;-46
2023/06/13 09:34:07;;;;;;;;;13.20;12.60;;;;;39.22;22.99;100619.41;5100584;27;45416;-48
2023/06/13 09:36:35;;;;;;;;;16.80;14.60;;;;;39.33;22.66;100628.97;5101170;27;45420;-47
2023/06/13 09:39:03;;;;;;;;;17.00;16.00;;;;;39.30;22.40;100624.06;5100086;27;47152;-46
2023/06/13 09:41:31;;;;;;;;;20.00;16.80;;;;;39.24;22.10;100614.31;5100458;27;45259;-46
2023/06/13 09:44:01;;;;;;;;;16.60;14.40;;;;;39.22;22.63;100624.97;5100517;27;45303;-48
2023/06/13 09:46:27;;;;;;;;;15.40;15.20;;;;;39.07;22.99;100617.25;5100673;27;45188;-45
2023/06/13 09:48:53;;;;;;;;;15.60;14.40;;;;;39.17;22.43;100633.50;5100271;27;47253;-47
2023/06/13 09:51:20;;;;;;;;;12.50;12.50;;;;;39.23;23.59;100629.38;5100121;27;45304;-46
2023/06/13 09:53:46;;;;;;;;;16.00;15.60;;;;;39.15;22.83;100625.53;5100196;27;45375;-47
2023/06/13 09:56:12;;;;;;;;;14.40;14.20;;;;;38.96;22.14;100627.16;5100365;27;45748;-46
2023/06/13 09:58:38;;;;;;;;;13.25;13.25;;;;;38.75;23.16;100629.94;5099744;27;46003;-47
2023/06/13 10:01:03;;;;;;;;;16.60;15.20;;;;;38.55;23.30;100631.56;5100209;27;45410;-47
2023/06/13 10:03:30;;;;;;;;;15.00;15.00;;;;;38.29;23.26;100628.94;5100026;27;45520;-48
2023/06/13 10:06:00;;;;;;;;;15.60;15.60;;;;;38.15;23.39;100634.75;5100201;27;45406;-48
2023/06/13 10:08:26;;;;;;;;;17.80;15.80;;;;;38.02;23.44;100617.16;5099745;27;47267;-47
2023/06/13 10:10:54;;;;;;;;;14.60;14.60;;;;;38.04;23.60;100630.69;5099871;27;45562;-46
2023/06/13 10:13:24;;;;;;;;;14.20;12.60;;;;;37.95;24.28;100628.78;5099987;27;45299;-47
2023/06/13 10:15:54;;;;;;;;;16.40;15.60;;;;;37.83;24.57;100631.41;5100037;27;45402;-48
2023/06/13 10:18:21;;;;;;;;;14.00;13.80;;;;;37.60;24.06;100613.41;5099520;27;46885;-46
2023/06/13 10:20:50;;;;;;;;;18.20;17.00;;;;;37.59;24.78;100637.56;5099564;27;45389;-47
2023/06/13 10:23:18;;;;;;;;;15.40;15.40;;;;;37.47;24.46;100631.06;5099273;27;45365;-48
2023/06/13 10:25:50;;;;;;;;;20.40;15.80;;;;;37.33;24.73;100632.03;5099482;27;45283;-47
2023/06/13 10:28:27;;;;;;;;;16.00;12.60;;;;;37.28;24.53;100642.50;5099633;27;47319;-49
2023/06/13 10:30:55;;;;;;;;;13.20;13.20;;;;;37.11;24.84;100649.69;5099663;27;45340;-47
2023/06/13 10:33:33;;;;;;;;;16.60;13.20;;;;;36.85;24.07;100641.34;5099751;27;45357;-47
2023/06/13 10:36:46;;;;;;;;;16.20;11.20;;;;;36.73;23.88;100641.19;5099930;27;45462;-48
2023/06/13 10:39:49;;;;;;;;;14.80;14.80;;;;;36.44;24.08;100633.47;5099398;27;46617;-48
2023/06/13 10:42:35;;;;;;;;;16.20;14.80;;;;;36.21;24.84;100627.22;5099373;27;45320;-48
2023/06/13 10:45:07;;;;;;;;;16.80;16.00;;;;;36.06;24.63;100634.00;5099342;27;45355;-47
2023/06/13 10:47:36;;;;;;;;;15.40;14.00;;;;;35.88;24.64;100633.13;5099411;27;45330;-50
2023/06/13 10:50:02;;;;;;;;;17.80;15.60;;;;;35.73;24.01;100637.13;5099089;27;46294;-49
2023/06/13 10:52:29;;;;;;;;;16.20;15.40;;;;;35.46;24.72;100621.47;5099428;27;45231;-48
2023/06/13 10:54:58;;;;;;;;;15.80;14.20;;;;;35.26;24.90;100638.59;5099310;27;45536;-49
2023/06/13 10:57:48;;;;;;;;;12.80;11.60;;;;;34.79;25.24;100631.72;5099334;27;45430;-49
2023/06/13 11:00:28;;;;;;;;;12.40;12.00;;;;;34.36;25.87;100621.84;5099054;27;47167;-49
2023/06/13 11:03:12;;;;;;;;;14.80;14.00;;;;;34.01;26.33;100637.22;5098792;27;45462;-47
2023/06/13 11:05:44;;;;;;;;;11.80;11.80;;;;;33.64;26.31;100627.94;5098826;27;45485;-46
2023/06/13 11:08:24;;;;;;;;;14.60;13.40;;;;;33.40;25.59;100628.06;5099139;27;45370;-48
2023/06/13 11:10:51;;;;;;;;;16.80;15.40;;;;;33.25;26.25;100639.38;5098798;27;45334;-47